Stockton-on-Tees, United Kingdom

12:37 AM GMT on February 15, 2016 (GMT +0000)
Yarm Weather | | Change Station
CLOSE
Current Station
Personal Weather Station
Location: Yarm, NORTH YORKSHIRE
Elevation: 115 ft
Nearby Weather Stations

Elev 115 ft 54.50 °N, 1.34 °W | Updated 4 minutes ago

Light Snow
Light Snow
34.0 °F
Feels Like 34 °F
N
0.0
Wind Variable Wind from West
Gusts 0.7 mph

Today
High -- | Low -- °F
--% Chance of Precip.
Yesterday
High -- | Low -- °F
Precip. -- in
Pressure 30.01 in
Visibility 5.0 miles
Clouds Mostly Cloudy 500 ft
Scattered Clouds 1400 ft
Windchill 34 °F
Dew Point 31 °F
Humidity 89%
Rainfall 0.00 in
Snow Depth Not available.
7:28 AM 5:12 PM
Waxing Crescent, 47% visible
METAR EGXE 142350Z AUTO 35007KT 8000 -SN BKN005/// SCT014/// 01/00 Q1016
Pressure 30.01 in
Visibility 5.0 miles
Clouds Mostly Cloudy 500 ft
Scattered Clouds 1400 ft
Windchill 34 °F
Dew Point 31 °F
Humidity 89%
Rainfall 0.00 in
Snow Depth Not available.
7:28 AM 5:12 PM
Waxing Crescent, 47% visible
METAR EGXE 142350Z AUTO 35007KT 8000 -SN BKN005/// SCT014/// 01/00 Q1016

10-Day Weather Forecast

Almanac

Astronomy

Feb. 15, 2016 Rise Set
Actual Time
Civil Twilight
Nautical Twilight
Astronomical Twilight
Moon
Length of Visible Light
Length of Day
Tomorrow will be .
, % of the Moon is Illuminated

Today's Extremes

Country Highs Country Lows

Community

WunderPhotos

Upload Photos

1,892,950 photos uploaded!

WunderBlog® & News

Nearby

Air Quality

  Air Quality AQ Index Pollutant
Not available.

Snow Depth

Station Depth Elevation

Earthquake Activity

City Distance Mag. Time & Date
Minimum magnitude displayed is 2.5.

Coastal Water Temperatures

Place Temperature

Stations

Nearby Weather Stations

Station Location Temp. Windchill Dew Point Humidity Wind Precip. Elev Updated Type